createdAt,value
2018-12-24T00:01:43.566Z,13.00
2018-12-24T00:04:14.491Z,10.53
2018-12-24T00:06:45.347Z,10.97
2018-12-24T00:09:17.894Z,11.97
2018-12-24T00:11:50.231Z,10.37
2018-12-24T00:14:22.474Z,13.67
2018-12-24T00:16:54.628Z,9.27
2018-12-24T00:19:26.752Z,7.63
2018-12-24T00:21:58.935Z,11.77
2018-12-24T00:24:31.098Z,11.37
2018-12-24T00:27:03.202Z,9.73
2018-12-24T00:29:34.033Z,9.93
2018-12-24T00:32:04.938Z,8.77
2018-12-24T00:34:35.910Z,9.83
2018-12-24T00:37:06.746Z,10.37
2018-12-24T00:39:38.709Z,9.07
2018-12-24T00:42:15.821Z,10.63
2018-12-24T00:44:42.433Z,9.13
2018-12-24T00:47:13.446Z,12.17
2018-12-24T00:49:44.412Z,11.67
2018-12-24T00:52:15.249Z,8.30
2018-12-24T00:54:46.235Z,10.00
2018-12-24T00:57:17.127Z,7.97
2018-12-24T00:59:48.035Z,8.60
2018-12-24T01:02:18.903Z,7.23
2018-12-24T01:04:49.739Z,7.57
2018-12-24T01:07:20.576Z,10.17
2018-12-24T01:09:51.618Z,7.70
2018-12-24T01:12:24.631Z,6.23
2018-12-24T01:14:55.132Z,8.07
2018-12-24T01:17:25.972Z,8.37
2018-12-24T01:19:56.810Z,6.60
2018-12-24T01:22:27.746Z,5.10
2018-12-24T01:24:58.582Z,6.57
2018-12-24T01:27:29.530Z,6.30
2018-12-24T01:30:00.357Z,6.13
2018-12-24T01:32:31.195Z,6.20
2018-12-24T01:35:02.032Z,6.57
2018-12-24T01:37:33.993Z,9.20
2018-12-24T01:40:04.830Z,8.10
2018-12-24T01:42:35.781Z,6.83
2018-12-24T01:45:06.858Z,8.20
2018-12-24T01:47:37.851Z,6.43
2018-12-24T01:50:08.688Z,5.50
2018-12-24T01:52:39.528Z,5.07
2018-12-24T01:55:10.367Z,7.43
2018-12-24T01:57:41.619Z,11.30
2018-12-24T02:00:12.619Z,6.13
2018-12-24T02:02:43.487Z,6.67
2018-12-24T02:05:14.323Z,6.57
2018-12-24T02:07:46.182Z,7.57
2018-12-24T02:10:17.020Z,5.33
2018-12-24T02:12:47.856Z,5.80
2018-12-24T02:15:18.694Z,5.40
2018-12-24T02:17:49.529Z,9.77
2018-12-24T02:20:20.441Z,6.83
2018-12-24T02:22:51.408Z,6.33
2018-12-24T02:25:22.247Z,8.50
2018-12-24T02:27:54.206Z,7.57
2018-12-24T02:30:25.092Z,5.73
2018-12-24T02:32:56.188Z,9.33
2018-12-24T02:35:27.094Z,9.47
2018-12-24T02:37:57.969Z,6.63
2018-12-24T02:40:28.798Z,6.67
2018-12-24T02:42:59.708Z,9.37
2018-12-24T02:45:30.781Z,10.00
2018-12-24T02:48:01.893Z,8.63
2018-12-24T02:50:32.759Z,9.50
2018-12-24T02:53:03.597Z,10.07
2018-12-24T02:55:34.437Z,9.97
2018-12-24T02:58:05.373Z,9.40
2018-12-24T03:00:36.335Z,10.03
2018-12-24T03:03:07.355Z,10.57
2018-12-24T03:05:38.195Z,6.63
2018-12-24T03:08:10.056Z,8.93
2018-12-24T03:10:40.887Z,6.80
2018-12-24T03:13:11.723Z,7.57
2018-12-24T03:15:42.562Z,7.97
2018-12-24T03:18:14.424Z,8.33
2018-12-24T03:20:45.256Z,8.10
2018-12-24T03:23:16.108Z,8.63
2018-12-24T03:25:46.935Z,9.03
2018-12-24T03:28:17.938Z,10.07
2018-12-24T03:30:48.827Z,5.47
2018-12-24T03:33:19.922Z,10.13
2018-12-24T03:35:50.890Z,7.33
2018-12-24T03:38:22.961Z,6.20
2018-12-24T03:40:53.870Z,7.27
2018-12-24T03:43:24.838Z,9.43
2018-12-24T03:45:55.717Z,10.73
2018-12-24T03:48:26.713Z,8.93
2018-12-24T03:50:57.557Z,9.97
2018-12-24T03:53:28.460Z,7.37
2018-12-24T03:55:59.324Z,12.20
2018-12-24T03:58:31.262Z,10.10
2018-12-24T04:01:02.127Z,8.63
2018-12-24T04:03:33.051Z,12.57
2018-12-24T04:06:04.107Z,9.47
2018-12-24T04:08:35.022Z,12.67
2018-12-24T04:11:05.982Z,12.80
2018-12-24T04:13:36.822Z,11.50
2018-12-24T04:16:07.656Z,11.93
2018-12-24T04:18:38.597Z,12.77
2018-12-24T04:21:09.328Z,9.10
2018-12-24T04:23:40.237Z,10.03
2018-12-24T04:26:11.104Z,7.97
2018-12-24T04:28:43.040Z,11.03
2018-12-24T04:31:13.905Z,9.57
2018-12-24T04:33:44.741Z,9.63
2018-12-24T04:36:15.694Z,10.30
2018-12-24T04:38:46.620Z,9.30
2018-12-24T04:41:17.527Z,11.53
2018-12-24T04:43:48.496Z,11.10
2018-12-24T04:46:19.483Z,10.40
2018-12-24T04:48:50.477Z,9.47
2018-12-24T04:51:21.391Z,10.80
2018-12-24T04:53:52.357Z,10.83
2018-12-24T04:56:23.195Z,8.20
2018-12-24T04:58:54.133Z,6.33
2018-12-24T05:01:24.967Z,9.20
2018-12-24T05:03:55.804Z,6.70
2018-12-24T05:06:26.798Z,7.37
2018-12-24T05:08:57.681Z,9.47
2018-12-24T05:11:28.518Z,8.20
2018-12-24T05:13:59.354Z,9.07
2018-12-24T05:16:30.196Z,8.53
2018-12-24T05:19:02.054Z,7.00
2018-12-24T05:21:32.889Z,6.40
2018-12-24T05:24:03.729Z,7.43
2018-12-24T05:26:34.634Z,7.53
2018-12-24T05:29:05.503Z,8.33
2018-12-24T05:31:36.337Z,10.53
2018-12-24T05:34:07.174Z,7.70
2018-12-24T05:36:38.523Z,7.00
2018-12-24T05:39:09.564Z,5.73
2018-12-24T05:41:40.503Z,9.70
2018-12-24T05:44:11.414Z,9.13
2018-12-24T05:46:42.898Z,7.10
2018-12-24T05:49:13.935Z,7.73
2018-12-24T05:51:44.772Z,8.53
2018-12-24T05:54:15.506Z,7.13
2018-12-24T05:56:46.416Z,6.87
2018-12-24T05:59:17.384Z,8.57
2018-12-24T06:01:48.221Z,7.30
2018-12-24T06:04:19.059Z,9.43
2018-12-24T06:06:50.099Z,7.57
2018-12-24T06:09:21.154Z,8.10
2018-12-24T06:11:52.079Z,9.10
2018-12-24T06:14:22.915Z,11.87
2018-12-24T06:16:53.754Z,8.73
2018-12-24T06:19:24.896Z,7.37
2018-12-24T06:21:55.802Z,9.30
2018-12-24T06:24:26.775Z,8.33
2018-12-24T06:26:57.610Z,8.07
2018-12-24T06:29:29.574Z,10.23
2018-12-24T06:32:00.412Z,7.43
2018-12-24T06:34:31.247Z,7.77
2018-12-24T06:37:02.082Z,9.47
2018-12-24T06:39:33.943Z,14.13
2018-12-24T06:42:04.834Z,12.17
2018-12-24T06:44:35.790Z,11.50
2018-12-24T06:47:06.770Z,12.07
2018-12-24T06:49:37.803Z,8.40
2018-12-24T06:52:08.644Z,10.23
2018-12-24T06:54:39.479Z,12.57
2018-12-24T06:57:10.312Z,10.03
2018-12-24T06:59:41.322Z,10.80
2018-12-24T07:02:12.191Z,13.77
2018-12-24T07:04:43.026Z,15.27
2018-12-24T07:07:13.863Z,13.67
2018-12-24T07:09:45.726Z,10.90
2018-12-24T07:12:16.560Z,10.83
2018-12-24T07:14:47.454Z,10.33
2018-12-24T07:17:18.232Z,9.70
2018-12-24T07:19:49.147Z,12.90
2018-12-24T07:22:20.113Z,10.07
2018-12-24T07:24:50.950Z,12.77
2018-12-24T07:27:21.784Z,8.57
2018-12-24T07:29:52.626Z,12.33
2018-12-24T07:32:23.459Z,13.43
2018-12-24T07:34:54.386Z,12.33
2018-12-24T07:37:25.298Z,10.47
2018-12-24T07:39:56.173Z,11.90
2018-12-24T07:42:27.014Z,12.63
2018-12-24T07:44:57.927Z,10.07
2018-12-24T07:47:28.998Z,9.50
2018-12-24T07:50:00.149Z,14.10
2018-12-24T07:52:30.978Z,13.20
2018-12-24T07:55:01.814Z,17.73
2018-12-24T07:57:32.952Z,11.03
2018-12-24T08:00:03.883Z,14.80
2018-12-24T08:02:34.734Z,17.50
2018-12-24T08:05:05.622Z,10.33
2018-12-24T08:07:36.506Z,12.00
2018-12-24T08:10:07.338Z,11.03
2018-12-24T08:12:38.179Z,12.17
2018-12-24T08:15:09.087Z,15.47
2018-12-24T08:17:40.116Z,20.27
2018-12-24T08:20:10.995Z,12.90
2018-12-24T08:22:41.831Z,18.97
2018-12-24T08:25:12.665Z,14.13
2018-12-24T08:27:44.525Z,13.83
2018-12-24T08:30:15.566Z,18.50
2018-12-24T08:32:46.474Z,18.17
2018-12-24T08:35:17.446Z,17.60
2018-12-24T08:37:49.414Z,17.63
2018-12-24T08:40:20.247Z,16.83
2018-12-24T08:42:51.084Z,15.07
2018-12-24T08:45:22.020Z,15.47
2018-12-24T08:47:54.240Z,15.93
2018-12-24T08:50:25.131Z,19.37
2018-12-24T08:52:56.039Z,16.20
2018-12-24T08:55:27.005Z,18.33
2018-12-24T08:57:58.943Z,16.83
2018-12-24T09:00:29.821Z,19.20
2018-12-24T09:03:00.646Z,18.57
2018-12-24T09:05:31.478Z,19.00
2018-12-24T09:08:02.423Z,16.53
2018-12-24T09:10:33.328Z,18.00
2018-12-24T09:13:04.295Z,14.57
2018-12-24T09:15:35.135Z,14.07
2018-12-24T09:18:06.071Z,18.00
2018-12-24T09:20:36.953Z,15.60
2018-12-24T09:23:07.921Z,12.07
2018-12-24T09:25:38.787Z,11.00
2018-12-24T09:28:09.728Z,14.90
2018-12-24T09:30:45.498Z,16.00
2018-12-24T09:33:16.486Z,18.10
2018-12-24T09:35:47.458Z,14.63
2018-12-24T09:38:19.394Z,14.60
2018-12-24T09:40:50.256Z,14.60
2018-12-24T09:43:21.095Z,15.83
2018-12-24T09:45:52.030Z,14.13
2018-12-24T09:48:23.983Z,14.87
2018-12-24T09:50:55.036Z,14.57
2018-12-24T09:53:25.859Z,13.23
2018-12-24T09:55:56.782Z,15.77
2018-12-24T09:58:27.648Z,13.53
2018-12-24T10:00:58.488Z,11.13
2018-12-24T10:03:46.599Z,15.57
2018-12-24T10:06:21.754Z,18.90
2018-12-24T10:08:52.501Z,14.87
2018-12-24T10:11:23.405Z,15.07
2018-12-24T10:13:54.375Z,17.43
2018-12-24T10:16:25.218Z,14.87
2018-12-24T10:18:56.209Z,16.20
2018-12-24T10:21:26.990Z,17.40
2018-12-24T10:23:58.003Z,14.80
2018-12-24T10:26:28.970Z,14.80
2018-12-24T10:29:00.910Z,15.23
2018-12-24T10:31:31.769Z,15.10
2018-12-24T10:34:02.610Z,15.00
2018-12-24T10:36:33.442Z,18.07
2018-12-24T10:39:05.508Z,19.60
2018-12-24T10:41:36.346Z,14.43
2018-12-24T10:44:07.285Z,13.80
2018-12-24T10:46:38.356Z,13.23
2018-12-24T10:49:09.572Z,15.33
2018-12-24T10:51:40.817Z,13.47
2018-12-24T10:54:11.727Z,17.33
2018-12-24T10:56:42.696Z,11.60
2018-12-24T10:59:13.633Z,15.57
2018-12-24T11:01:44.785Z,13.53
2018-12-24T11:04:15.622Z,12.27
2018-12-24T11:06:46.530Z,15.37
2018-12-24T11:09:17.493Z,17.27
2018-12-24T11:11:48.330Z,11.87
2018-12-24T11:14:19.165Z,16.73
2018-12-24T11:16:50.002Z,12.13
2018-12-24T11:19:20.943Z,12.67
2018-12-24T11:21:51.826Z,16.83
2018-12-24T11:24:22.818Z,15.53
2018-12-24T11:26:53.657Z,15.90
2018-12-24T11:29:24.594Z,13.47
2018-12-24T11:31:55.435Z,13.33
2018-12-24T11:34:26.164Z,16.40
2018-12-24T11:36:57.071Z,11.93
2018-12-24T11:39:28.045Z,12.73
2018-12-24T11:41:58.887Z,16.83
2018-12-24T11:44:29.783Z,14.50
2018-12-24T11:47:00.757Z,11.40
2018-12-24T11:49:32.723Z,12.23
2018-12-24T11:52:03.911Z,17.57
2018-12-24T11:54:34.803Z,14.37
2018-12-24T11:57:05.743Z,14.33
2018-12-24T11:59:37.603Z,12.37
2018-12-24T12:02:10.039Z,12.13
2018-12-24T12:04:41.118Z,14.03
2018-12-24T12:07:12.035Z,15.33
2018-12-24T12:09:42.896Z,15.10
2018-12-24T12:12:13.732Z,11.33
2018-12-24T12:14:44.567Z,13.23
2018-12-24T12:17:15.405Z,11.67
2018-12-24T12:19:47.266Z,15.27
2018-12-24T12:22:18.113Z,13.77
2018-12-24T12:24:48.986Z,12.53
2018-12-24T12:27:19.775Z,13.23
2018-12-24T12:29:50.682Z,9.67
2018-12-24T12:32:21.555Z,8.28
2018-12-24T12:34:52.489Z,11.43
2018-12-24T12:38:12.581Z,11.65
2018-12-24T12:40:42.997Z,11.05
2018-12-24T12:43:15.389Z,10.25
2018-12-24T12:45:51.221Z,10.55
2018-12-24T12:48:17.566Z,14.50
2018-12-24T12:50:47.982Z,10.15
2018-12-24T12:53:18.510Z,10.98
2018-12-24T12:55:48.990Z,11.43
2018-12-24T12:58:19.478Z,13.78
2018-12-24T13:00:49.904Z,11.93
2018-12-24T13:03:20.321Z,11.90
2018-12-24T13:05:50.749Z,12.00
2018-12-24T13:08:21.186Z,15.23
2018-12-24T13:10:51.602Z,15.90
2018-12-24T13:13:22.040Z,14.27
2018-12-24T13:15:59.563Z,13.20
2018-12-24T13:18:24.522Z,18.20
2018-12-24T13:20:54.951Z,16.00
2018-12-24T13:23:25.374Z,16.03
2018-12-24T13:25:55.859Z,15.37
2018-12-24T13:28:26.348Z,14.60
2018-12-24T13:30:56.760Z,14.90
2018-12-24T13:33:27.185Z,12.83
2018-12-24T13:35:57.624Z,15.00
2018-12-24T13:38:28.117Z,13.07
2018-12-24T13:40:58.729Z,15.13
2018-12-24T13:43:29.213Z,13.83
2018-12-24T13:46:07.895Z,14.87
2018-12-24T13:48:33.752Z,17.97
2018-12-24T13:51:04.249Z,18.37
2018-12-24T13:53:41.704Z,15.27
2018-12-24T13:56:25.929Z,12.30
2018-12-24T13:58:56.367Z,11.77
2018-12-24T14:01:33.332Z,17.77
2018-12-24T14:04:03.761Z,12.17
2018-12-24T14:06:34.185Z,11.93
2018-12-24T14:09:05.905Z,13.27
2018-12-24T14:11:36.371Z,16.67
2018-12-24T14:14:06.786Z,12.07
2018-12-24T14:16:37.214Z,12.53
2018-12-24T14:19:07.649Z,13.93
2018-12-24T14:21:38.088Z,17.40
2018-12-24T14:24:08.493Z,8.00
2018-12-24T14:26:38.932Z,9.30
2018-12-24T14:29:09.382Z,11.50
2018-12-24T14:31:39.786Z,12.27
2018-12-24T14:34:10.201Z,14.33
2018-12-24T14:36:40.705Z,14.03
2018-12-24T14:39:11.157Z,9.03
2018-12-24T14:41:41.597Z,12.73
2018-12-24T14:44:12.014Z,15.13
2018-12-24T14:46:42.450Z,13.50
2018-12-24T14:49:13.053Z,14.33
2018-12-24T14:51:43.595Z,13.77
2018-12-24T14:54:14.234Z,14.63
2018-12-24T14:56:44.662Z,14.77
2018-12-24T14:59:15.200Z,14.57
2018-12-24T15:01:45.798Z,11.73
2018-12-24T15:04:16.258Z,12.57
2018-12-24T15:06:46.674Z,14.40
2018-12-24T15:09:17.102Z,12.27
2018-12-24T15:11:47.539Z,11.60
2018-12-24T15:14:17.953Z,12.67
2018-12-24T15:16:48.392Z,13.07
2018-12-24T15:19:18.820Z,12.33
2018-12-24T15:21:49.239Z,9.93
2018-12-24T15:24:19.673Z,12.33
2018-12-24T15:26:50.101Z,12.20
2018-12-24T15:29:20.529Z,14.23
2018-12-24T15:31:51.001Z,9.90
2018-12-24T15:34:21.477Z,14.40
2018-12-24T15:36:51.911Z,14.03
2018-12-24T15:39:22.340Z,14.27
2018-12-24T15:41:52.766Z,12.80
2018-12-24T15:44:23.181Z,12.00
2018-12-24T15:46:53.611Z,13.87
2018-12-24T15:49:24.251Z,19.97
2018-12-24T15:51:54.883Z,19.87
2018-12-24T15:54:25.515Z,20.73
2018-12-24T15:56:56.034Z,16.87
2018-12-24T15:59:26.553Z,17.17
2018-12-24T16:01:57.312Z,19.73
2018-12-24T16:04:27.725Z,18.40
2018-12-24T16:06:58.162Z,20.73
2018-12-24T16:09:28.578Z,27.77
2018-12-24T16:11:59.009Z,23.80
2018-12-24T16:14:29.429Z,30.30
2018-12-24T16:16:59.870Z,28.90
2018-12-24T16:19:30.286Z,33.93
2018-12-24T16:22:00.714Z,29.27
2018-12-24T16:24:31.149Z,30.97
2018-12-24T16:27:01.577Z,26.43
2018-12-24T16:29:31.994Z,27.57
2018-12-24T16:32:02.422Z,23.27
2018-12-24T16:34:32.907Z,25.00
2018-12-24T16:37:03.390Z,25.77
2018-12-24T16:39:33.819Z,26.77
2018-12-24T16:42:04.448Z,25.87
2018-12-24T16:44:35.079Z,38.37
2018-12-24T16:47:05.507Z,26.50
2018-12-24T16:49:36.946Z,22.40
2018-12-24T16:52:07.375Z,21.23
2018-12-24T16:54:37.810Z,25.63
2018-12-24T16:57:08.410Z,27.33
2018-12-24T16:59:38.927Z,34.03
2018-12-24T17:02:09.397Z,26.80
2018-12-24T17:04:39.890Z,28.30
2018-12-24T17:07:10.353Z,33.87
2018-12-24T17:09:40.772Z,34.13
2018-12-24T17:12:11.209Z,31.03
2018-12-24T17:14:41.635Z,39.93
2018-12-24T17:17:12.061Z,34.13
2018-12-24T17:19:42.491Z,33.37
2018-12-24T17:22:12.916Z,28.40
2018-12-24T17:24:43.343Z,30.70
2018-12-24T17:27:14.226Z,27.17
2018-12-24T17:29:45.663Z,31.50
2018-12-24T17:32:16.060Z,32.90
2018-12-24T17:34:46.488Z,27.40
2018-12-24T17:37:16.959Z,27.63
2018-12-24T17:39:47.440Z,27.23
2018-12-24T17:42:17.857Z,28.73
2018-12-24T17:44:48.295Z,26.37
2018-12-24T17:47:18.714Z,26.70
2018-12-24T17:49:49.149Z,23.90
2018-12-24T17:52:19.578Z,27.57
2018-12-24T17:54:50.007Z,25.10
2018-12-24T17:57:20.430Z,27.93
2018-12-24T17:59:51.169Z,33.33
2018-12-24T18:02:21.591Z,39.30
2018-12-24T18:04:52.010Z,34.33
2018-12-24T18:07:22.599Z,37.73
2018-12-24T18:09:53.077Z,38.07
2018-12-24T18:12:23.710Z,42.87
2018-12-24T18:14:54.342Z,36.90
2018-12-24T18:17:25.169Z,46.70
2018-12-24T18:19:55.878Z,44.97
2018-12-24T18:22:26.330Z,45.13
2018-12-24T18:24:56.766Z,47.80
2018-12-24T18:27:27.398Z,42.50
2018-12-24T18:29:58.030Z,39.30
2018-12-24T18:32:28.662Z,44.77
2018-12-24T18:34:59.293Z,45.43
2018-12-24T18:37:48.450Z,41.03
2018-12-24T18:40:19.053Z,43.90
2018-12-24T18:42:49.506Z,42.57
2018-12-24T18:45:19.944Z,46.43
2018-12-24T18:47:50.362Z,44.23
2018-12-24T18:50:21.004Z,42.27
2018-12-24T18:52:51.635Z,67.97
2018-12-24T18:55:22.267Z,47.60
2018-12-24T18:57:52.898Z,50.53
2018-12-24T19:00:23.529Z,57.47
2018-12-24T19:02:53.956Z,39.83
2018-12-24T19:05:24.971Z,43.53
2018-12-24T19:07:55.528Z,45.13
2018-12-24T19:10:25.979Z,38.20
2018-12-24T19:12:56.380Z,44.00
2018-12-24T19:15:27.012Z,50.07
2018-12-24T19:17:57.532Z,55.73
2018-12-24T19:20:27.968Z,50.30
2018-12-24T19:22:58.397Z,51.50
2018-12-24T19:25:28.823Z,57.37
2018-12-24T19:27:59.242Z,47.00
2018-12-24T19:30:29.680Z,42.00
2018-12-24T19:33:00.098Z,39.53
2018-12-24T19:35:30.522Z,35.03
2018-12-24T19:38:00.949Z,34.33
2018-12-24T19:40:31.432Z,40.73
2018-12-24T19:43:01.959Z,38.17
2018-12-24T19:45:32.434Z,51.20
2018-12-24T19:48:02.871Z,55.97
2018-12-24T19:50:33.296Z,43.37
2018-12-24T19:53:03.726Z,57.63
2018-12-24T19:55:34.141Z,65.90
2018-12-24T19:58:04.580Z,47.90
2018-12-24T20:00:35.204Z,44.87
2018-12-24T20:03:05.637Z,45.20
2018-12-24T20:05:36.053Z,47.37
2018-12-24T20:08:06.493Z,49.33
2018-12-24T20:10:36.913Z,49.70
2018-12-24T20:13:07.338Z,58.17
2018-12-24T20:15:38.070Z,70.40
2018-12-24T20:18:08.508Z,117.27
2018-12-24T20:20:38.925Z,100.13
2018-12-24T20:23:09.355Z,72.10
2018-12-24T20:25:39.778Z,69.63
2018-12-24T20:28:10.207Z,61.90
2018-12-24T20:30:40.643Z,61.77
2018-12-24T20:33:11.071Z,65.90
2018-12-24T20:35:41.486Z,63.10
2018-12-24T20:38:11.925Z,64.00
2018-12-24T20:40:42.414Z,61.00
2018-12-24T20:43:12.909Z,70.37
2018-12-24T20:45:46.190Z,62.80
2018-12-24T20:48:35.546Z,59.53
2018-12-24T20:51:16.060Z,57.57
2018-12-24T20:53:44.478Z,59.63
2018-12-24T20:56:14.906Z,54.27
2018-12-24T20:58:45.338Z,54.53
2018-12-24T21:01:15.771Z,48.70
2018-12-24T21:03:46.185Z,52.47
2018-12-24T21:06:16.646Z,49.10
2018-12-24T21:08:47.154Z,56.17
2018-12-24T21:11:17.583Z,65.33
2018-12-24T21:13:48.010Z,57.33
2018-12-24T21:16:18.585Z,50.83
2018-12-24T21:18:49.066Z,51.70
2018-12-24T21:21:19.494Z,47.23
2018-12-24T21:23:50.126Z,46.20
2018-12-24T21:26:20.553Z,45.87
2018-12-24T21:28:51.081Z,46.70
2018-12-24T21:31:21.498Z,50.83
2018-12-24T21:33:51.926Z,43.47
2018-12-24T21:36:22.363Z,43.43
2018-12-24T21:38:53.813Z,42.63
2018-12-24T21:41:24.230Z,53.67
2018-12-24T21:43:54.658Z,56.03
2018-12-24T21:46:25.086Z,61.67
2018-12-24T21:48:57.038Z,59.03
2018-12-24T21:51:27.657Z,53.33
2018-12-24T21:53:58.326Z,53.90
2018-12-24T21:56:30.198Z,58.47
2018-12-24T21:59:00.609Z,59.83
2018-12-24T22:01:31.026Z,61.57
2018-12-24T22:04:01.668Z,64.17
2018-12-24T22:06:32.186Z,61.50
2018-12-24T22:09:04.510Z,63.63
2018-12-24T22:11:34.996Z,74.13
2018-12-24T22:14:05.629Z,61.13
2018-12-24T22:16:36.260Z,58.53
2018-12-24T22:19:06.679Z,63.70
2018-12-24T22:21:37.158Z,64.47
2018-12-24T22:24:07.638Z,61.37
2018-12-24T22:26:38.061Z,64.67
2018-12-24T22:29:08.488Z,73.97
2018-12-24T22:31:38.914Z,81.17
2018-12-24T22:34:09.343Z,73.33
2018-12-24T22:36:39.758Z,81.93
2018-12-24T22:39:10.194Z,66.77
2018-12-24T22:41:40.621Z,60.07
2018-12-24T22:44:11.049Z,64.73
2018-12-24T22:46:41.488Z,63.37
2018-12-24T22:49:11.913Z,61.60
2018-12-24T22:51:42.612Z,52.70
2018-12-24T22:54:13.072Z,59.23
2018-12-24T22:56:43.509Z,63.80
2018-12-24T22:59:13.928Z,60.13
2018-12-24T23:01:44.354Z,62.93
2018-12-24T23:04:14.987Z,74.07
2018-12-24T23:06:45.505Z,70.97
2018-12-24T23:09:15.941Z,81.83
2018-12-24T23:11:46.369Z,74.77
2018-12-24T23:14:16.797Z,78.37
2018-12-24T23:16:47.223Z,79.73
2018-12-24T23:19:17.637Z,74.00
2018-12-24T23:21:48.078Z,82.60
2018-12-24T23:24:18.525Z,89.87
2018-12-24T23:26:49.137Z,86.13
2018-12-24T23:29:19.768Z,71.07
2018-12-24T23:31:50.190Z,70.83
2018-12-24T23:34:20.621Z,66.27
2018-12-24T23:36:51.038Z,65.70
2018-12-24T23:39:21.570Z,66.20
2018-12-24T23:41:51.995Z,62.30
2018-12-24T23:44:22.422Z,58.17
2018-12-24T23:46:52.851Z,53.50
2018-12-24T23:49:23.278Z,52.00
2018-12-24T23:51:53.921Z,61.43
2018-12-24T23:54:24.490Z,49.60
2018-12-24T23:56:54.978Z,49.37
2018-12-24T23:59:25.395Z,55.13
